createdAt,value
2022-11-23T00:00:17.117Z,7.70
2022-11-23T00:02:43.712Z,7.70
2022-11-23T00:05:10.549Z,7.70
2022-11-23T00:07:37.151Z,7.70
2022-11-23T00:10:04.105Z,7.70
2022-11-23T00:12:30.840Z,7.70
2022-11-23T00:14:57.484Z,7.80
2022-11-23T00:17:24.074Z,7.80
2022-11-23T00:19:50.752Z,7.80
2022-11-23T00:22:17.396Z,7.80
2022-11-23T00:24:44.184Z,7.80
2022-11-23T00:27:10.804Z,7.80
2022-11-23T00:29:37.374Z,7.80
2022-11-23T00:32:04.197Z,7.80
2022-11-23T00:34:30.801Z,7.70
2022-11-23T00:36:57.424Z,7.80
2022-11-23T00:39:24.033Z,7.70
2022-11-23T00:41:50.620Z,7.70
2022-11-23T00:44:17.397Z,7.70
2022-11-23T00:46:43.969Z,7.70
2022-11-23T00:49:10.593Z,7.70
2022-11-23T00:51:37.985Z,7.70
2022-11-23T00:54:06.121Z,7.70
2022-11-23T00:56:34.620Z,7.80
2022-11-23T00:59:02.728Z,7.80
2022-11-23T01:01:34.044Z,7.70
2022-11-23T01:04:03.385Z,7.70
2022-11-23T01:06:35.909Z,7.80
2022-11-23T01:09:06.477Z,7.70
2022-11-23T01:11:33.102Z,7.70
2022-11-23T01:14:00.280Z,7.70
2022-11-23T01:16:32.901Z,7.70
2022-11-23T01:19:02.521Z,7.70
2022-11-23T01:21:30.425Z,7.70
2022-11-23T01:23:57.512Z,7.80
2022-11-23T01:26:24.408Z,7.80
2022-11-23T01:28:51.436Z,7.80
2022-11-23T01:31:20.434Z,7.80
2022-11-23T01:33:47.819Z,7.80
2022-11-23T01:36:17.046Z,7.80
2022-11-23T01:38:44.652Z,7.80
2022-11-23T01:41:17.702Z,7.80
2022-11-23T01:43:44.698Z,7.80
2022-11-23T01:46:12.067Z,7.80
2022-11-23T01:48:49.145Z,7.80
2022-11-23T01:51:20.419Z,7.80
2022-11-23T01:53:49.969Z,7.70
2022-11-23T01:56:23.361Z,7.70
2022-11-23T01:58:53.604Z,7.70
2022-11-23T02:01:20.365Z,7.70
2022-11-23T02:03:49.129Z,7.70
2022-11-23T02:06:18.686Z,7.70
2022-11-23T02:08:46.945Z,7.70
2022-11-23T02:11:15.373Z,7.70
2022-11-23T02:13:44.807Z,7.70
2022-11-23T02:16:12.444Z,7.70
2022-11-23T02:18:45.242Z,7.70
2022-11-23T02:21:12.710Z,7.60
2022-11-23T02:23:59.851Z,7.70
2022-11-23T02:26:29.773Z,7.70
2022-11-23T02:29:05.075Z,7.70
2022-11-23T02:31:31.927Z,7.70
2022-11-23T02:33:58.627Z,7.70
2022-11-23T02:36:36.995Z,7.70
2022-11-23T02:39:08.944Z,7.70
2022-11-23T02:41:44.868Z,7.60
2022-11-23T02:44:31.833Z,7.70
2022-11-23T02:46:58.896Z,7.70
2022-11-23T02:49:25.785Z,7.60
2022-11-23T02:51:52.921Z,7.60
2022-11-23T02:54:19.703Z,7.60
2022-11-23T02:56:46.381Z,7.60
2022-11-23T02:59:13.037Z,7.60
2022-11-23T03:01:42.622Z,7.60
2022-11-23T03:04:10.480Z,7.60
2022-11-23T03:06:37.551Z,7.70
2022-11-23T03:09:04.424Z,7.60
2022-11-23T03:11:31.274Z,7.60
2022-11-23T03:13:58.009Z,7.60
2022-11-23T03:16:24.637Z,7.50
2022-11-23T03:18:51.731Z,7.50
2022-11-23T03:21:18.349Z,7.50
2022-11-23T03:23:45.334Z,7.50
2022-11-23T03:26:13.271Z,7.50
2022-11-23T03:28:40.552Z,7.50
2022-11-23T03:31:07.227Z,7.50
2022-11-23T03:33:33.949Z,7.40
2022-11-23T03:36:00.691Z,7.40
2022-11-23T03:38:27.588Z,7.40
2022-11-23T03:40:54.235Z,7.40
2022-11-23T03:43:21.425Z,7.40
2022-11-23T03:45:48.223Z,7.40
2022-11-23T03:48:15.690Z,7.40
2022-11-23T03:50:42.391Z,7.50
2022-11-23T03:53:09.135Z,7.40
2022-11-23T03:55:35.765Z,7.40
2022-11-23T03:58:02.480Z,7.50
2022-11-23T04:00:30.533Z,7.50
2022-11-23T04:02:57.237Z,7.50
2022-11-23T04:05:23.974Z,7.60
2022-11-23T04:07:50.777Z,7.60
2022-11-23T04:10:19.156Z,7.60
2022-11-23T04:12:50.182Z,7.50
2022-11-23T04:15:16.947Z,7.50
2022-11-23T04:17:43.562Z,7.50
2022-11-23T04:20:10.561Z,7.40
2022-11-23T04:22:37.159Z,7.40
2022-11-23T04:25:04.068Z,7.40
2022-11-23T04:27:30.673Z,7.40
2022-11-23T04:29:57.280Z,7.40
2022-11-23T04:32:23.882Z,7.40
2022-11-23T04:34:50.512Z,7.50
2022-11-23T04:37:17.145Z,7.50
2022-11-23T04:39:43.722Z,7.40
2022-11-23T04:42:13.820Z,7.50
2022-11-23T04:44:40.536Z,7.50
2022-11-23T04:47:07.238Z,7.50
2022-11-23T04:49:34.105Z,7.40
2022-11-23T04:52:00.944Z,7.50
2022-11-23T04:54:27.574Z,7.50
2022-11-23T04:56:54.347Z,7.50
2022-11-23T04:59:22.168Z,7.50
2022-11-23T05:01:49.492Z,7.40
2022-11-23T05:06:45.251Z,7.40
2022-11-23T05:09:12.441Z,7.40
2022-11-23T05:11:39.090Z,7.30
2022-11-23T05:14:05.792Z,7.30
2022-11-23T05:16:32.448Z,7.30
2022-11-23T05:18:59.058Z,7.30
2022-11-23T05:21:25.711Z,7.30
2022-11-23T05:23:52.510Z,7.20
2022-11-23T05:26:19.565Z,7.20
2022-11-23T05:28:46.259Z,7.20
2022-11-23T05:31:12.873Z,7.20
2022-11-23T05:33:39.666Z,7.20
2022-11-23T05:36:06.711Z,7.20
2022-11-23T05:38:33.336Z,7.20
2022-11-23T05:40:59.948Z,7.20
2022-11-23T05:43:26.549Z,7.20
2022-11-23T05:45:53.167Z,7.20
2022-11-23T05:48:19.863Z,7.20
2022-11-23T05:50:46.498Z,7.20
2022-11-23T05:53:13.079Z,7.20
2022-11-23T05:55:39.652Z,7.20
2022-11-23T05:58:06.259Z,7.20
2022-11-23T06:00:32.929Z,7.30
2022-11-23T06:03:01.304Z,7.30
2022-11-23T06:05:28.614Z,7.30
2022-11-23T06:07:55.909Z,7.30
2022-11-23T06:10:22.635Z,7.30
2022-11-23T06:12:52.716Z,7.30
2022-11-23T06:15:19.677Z,7.30
2022-11-23T06:17:47.360Z,7.30
2022-11-23T06:20:14.195Z,7.40
2022-11-23T06:22:40.882Z,7.30
2022-11-23T06:25:07.850Z,7.30
2022-11-23T06:27:34.513Z,7.30
2022-11-23T06:30:01.164Z,7.30
2022-11-23T06:32:27.752Z,7.30
2022-11-23T06:34:59.391Z,7.40
2022-11-23T06:37:27.500Z,7.30
2022-11-23T06:39:54.106Z,7.30
2022-11-23T06:45:08.160Z,7.30
2022-11-23T06:47:35.155Z,7.30
2022-11-23T06:50:01.719Z,7.30
2022-11-23T06:52:28.436Z,7.40
2022-11-23T06:54:55.117Z,7.40
2022-11-23T06:57:21.733Z,7.40
2022-11-23T06:59:48.440Z,7.40
2022-11-23T07:02:15.517Z,7.40
2022-11-23T07:04:42.233Z,7.40
2022-11-23T07:07:09.293Z,7.40
2022-11-23T07:09:36.307Z,7.40
2022-11-23T07:12:02.949Z,7.40
2022-11-23T07:14:29.693Z,7.40
2022-11-23T07:16:56.325Z,7.40
2022-11-23T07:19:22.947Z,7.40
2022-11-23T07:21:49.641Z,7.40
2022-11-23T07:26:47.924Z,7.40
2022-11-23T07:29:14.612Z,7.40
2022-11-23T07:31:41.267Z,7.50
2022-11-23T07:34:09.209Z,7.40
2022-11-23T07:36:35.792Z,7.40
2022-11-23T07:39:03.392Z,7.40
2022-11-23T07:41:30.066Z,7.40
2022-11-23T07:43:56.635Z,7.20
2022-11-23T07:46:23.306Z,7.30
2022-11-23T07:48:50.277Z,7.20
2022-11-23T07:51:19.476Z,7.30
2022-11-23T07:53:47.104Z,7.40
2022-11-23T07:56:15.770Z,7.20
2022-11-23T07:58:42.440Z,7.70
2022-11-23T08:01:09.012Z,7.60
2022-11-23T08:06:02.956Z,7.40
2022-11-23T08:08:29.586Z,7.50
2022-11-23T08:10:56.215Z,7.70
2022-11-23T08:13:23.428Z,7.50
2022-11-23T08:15:54.800Z,7.60
2022-11-23T08:18:23.122Z,7.50
2022-11-23T08:20:49.888Z,7.60
2022-11-23T08:23:16.484Z,7.60
2022-11-23T08:25:43.107Z,7.60
2022-11-23T08:28:09.780Z,7.60
2022-11-23T08:30:36.753Z,8.10
2022-11-23T08:33:05.227Z,7.50
2022-11-23T08:35:37.292Z,8.10
2022-11-23T08:38:04.715Z,8.00
2022-11-23T08:40:31.627Z,8.00
2022-11-23T08:42:58.424Z,8.10
2022-11-23T08:45:25.259Z,8.00
2022-11-23T08:47:52.899Z,8.00
2022-11-23T08:50:21.590Z,8.20
2022-11-23T08:52:48.234Z,8.20
2022-11-23T08:55:14.927Z,8.20
2022-11-23T08:57:41.970Z,8.20
2022-11-23T09:00:09.233Z,8.20
2022-11-23T09:02:35.877Z,8.20
2022-11-23T09:05:02.587Z,8.10
2022-11-23T09:07:29.235Z,8.10
2022-11-23T09:10:01.063Z,8.30
2022-11-23T09:12:27.763Z,8.30
2022-11-23T09:14:54.379Z,8.60
2022-11-23T09:17:20.972Z,8.80
2022-11-23T09:19:50.248Z,8.80
2022-11-23T09:22:16.845Z,8.90
2022-11-23T09:24:43.468Z,8.80
2022-11-23T09:27:10.145Z,8.70
2022-11-23T09:32:04.198Z,8.60
2022-11-23T09:34:31.163Z,8.60
2022-11-23T09:36:58.152Z,8.70
2022-11-23T09:39:25.374Z,8.70
2022-11-23T09:42:03.738Z,8.70
2022-11-23T09:44:52.089Z,8.80
2022-11-23T09:47:37.890Z,8.90
2022-11-23T09:50:07.477Z,9.00
2022-11-23T09:52:36.266Z,8.90
2022-11-23T09:55:11.973Z,8.90
2022-11-23T09:57:42.317Z,8.90
2022-11-23T10:00:21.276Z,8.70
2022-11-23T10:02:48.352Z,8.60
2022-11-23T10:05:24.837Z,8.60
2022-11-23T10:08:01.861Z,8.60
2022-11-23T10:10:45.696Z,8.60
2022-11-23T10:13:15.115Z,8.70
2022-11-23T10:15:50.702Z,8.70
2022-11-23T10:18:48.017Z,8.80
2022-11-23T10:21:52.449Z,8.70
2022-11-23T10:24:24.842Z,8.90
2022-11-23T10:26:51.460Z,8.90
2022-11-23T10:29:26.236Z,8.90
2022-11-23T10:31:57.015Z,9.00
2022-11-23T10:34:46.199Z,9.00
2022-11-23T10:37:14.257Z,9.10
2022-11-23T10:39:41.106Z,8.90
2022-11-23T10:42:25.132Z,8.90
2022-11-23T10:44:55.408Z,8.80
2022-11-23T10:55:26.186Z,8.80
2022-11-23T11:00:30.976Z,8.70
2022-11-23T11:13:39.957Z,8.60
2022-11-23T11:16:20.026Z,8.70
2022-11-23T11:18:46.701Z,8.90
2022-11-23T11:21:41.309Z,9.00
2022-11-23T11:24:18.114Z,9.50
2022-11-23T11:29:38.713Z,10.40
2022-11-23T11:32:28.981Z,10.80
2022-11-23T11:35:02.874Z,10.60
2022-11-23T11:37:37.107Z,10.40
2022-11-23T11:40:27.642Z,10.00
2022-11-23T11:43:02.610Z,9.60
2022-11-23T11:45:34.051Z,9.50
2022-11-23T11:48:17.316Z,9.50
2022-11-23T13:15:07.750Z,9.70
2022-11-23T13:17:50.578Z,9.80
2022-11-23T13:22:48.092Z,10.00
2022-11-23T13:25:24.573Z,10.00
2022-11-23T13:27:51.149Z,9.90
2022-11-23T13:30:24.639Z,9.90
2022-11-23T13:33:02.159Z,9.90
2022-11-23T13:35:28.762Z,9.80
2022-11-23T13:37:58.230Z,9.70
2022-11-23T13:40:33.648Z,9.60
2022-11-23T13:43:09.294Z,9.60
2022-11-23T13:45:39.108Z,9.60
2022-11-23T13:48:08.812Z,10.00
2022-11-23T13:50:38.325Z,10.70
2022-11-23T13:53:51.434Z,11.00
2022-11-23T13:56:22.613Z,10.90
2022-11-23T13:58:53.690Z,10.70
2022-11-23T14:02:02.932Z,10.30
2022-11-23T14:04:44.285Z,10.00
2022-11-23T14:07:49.390Z,9.70
2022-11-23T14:10:21.190Z,9.50
2022-11-23T14:12:58.708Z,9.30
2022-11-23T14:15:29.119Z,9.20
2022-11-23T14:18:33.670Z,9.10
2022-11-23T14:21:15.332Z,9.10
2022-11-23T14:24:19.725Z,8.90
2022-11-23T14:27:23.782Z,8.80
2022-11-23T14:29:56.149Z,8.70
2022-11-23T14:33:03.605Z,8.60
2022-11-23T14:35:42.576Z,8.60
2022-11-23T14:38:33.828Z,8.60
2022-11-23T14:41:22.969Z,8.50
2022-11-23T14:43:52.095Z,8.50
2022-11-23T14:46:21.148Z,8.40
2022-11-23T14:48:49.100Z,8.30
2022-11-23T14:51:28.049Z,8.30
2022-11-23T14:53:58.978Z,8.20
2022-11-23T14:56:45.239Z,8.20
2022-11-23T14:59:18.060Z,8.10
2022-11-23T15:01:55.967Z,8.20
2022-11-23T15:04:29.163Z,8.20
2022-11-23T15:07:01.662Z,8.10
2022-11-23T15:09:37.187Z,8.10
2022-11-23T15:12:08.136Z,8.10
2022-11-23T15:14:35.636Z,8.10
2022-11-23T15:17:16.892Z,8.10
2022-11-23T15:19:43.656Z,8.10
2022-11-23T15:22:16.726Z,8.10
2022-11-23T15:24:44.938Z,8.10
2022-11-23T15:27:18.684Z,8.10
2022-11-23T15:29:54.276Z,8.10
2022-11-23T15:32:35.249Z,8.10
2022-11-23T15:35:06.809Z,8.10
2022-11-23T15:37:45.267Z,8.10
2022-11-23T15:40:17.109Z,8.10
2022-11-23T15:42:44.992Z,8.10
2022-11-23T15:45:58.547Z,8.10
2022-11-23T15:48:34.053Z,8.20
2022-11-23T15:51:03.209Z,8.20
2022-11-23T15:53:50.555Z,8.20
2022-11-23T15:56:37.561Z,8.20
2022-11-23T15:59:18.075Z,8.20
2022-11-23T16:01:44.902Z,8.20
2022-11-23T16:04:36.974Z,8.20
2022-11-23T16:07:15.546Z,8.20
2022-11-23T16:09:51.098Z,8.30
2022-11-23T16:12:33.822Z,8.20
2022-11-23T16:15:44.150Z,8.20
2022-11-23T16:18:22.596Z,8.20
2022-11-23T16:20:53.727Z,8.20
2022-11-23T16:23:23.701Z,8.20
2022-11-23T16:26:05.709Z,8.20
2022-11-23T16:28:53.273Z,8.20
2022-11-23T16:31:38.233Z,8.20
2022-11-23T16:34:17.491Z,8.20
2022-11-23T16:36:44.324Z,8.20
2022-11-23T16:39:11.479Z,8.20
2022-11-23T16:41:39.019Z,8.10
2022-11-23T16:44:05.647Z,8.10
2022-11-23T16:46:32.711Z,8.00
2022-11-23T16:49:00.189Z,7.90
2022-11-23T16:51:27.821Z,7.80
2022-11-23T16:54:13.172Z,7.70
2022-11-23T16:56:41.123Z,7.60
2022-11-23T16:59:16.048Z,7.50
2022-11-23T17:01:45.765Z,7.40
2022-11-23T17:04:15.033Z,7.30
2022-11-23T17:06:42.779Z,7.30
2022-11-23T17:09:10.026Z,7.20
2022-11-23T17:11:45.140Z,7.20
2022-11-23T17:14:18.782Z,7.20
2022-11-23T17:16:46.784Z,7.10
2022-11-23T17:19:19.234Z,7.10
2022-11-23T17:21:45.871Z,7.00
2022-11-23T17:24:13.681Z,7.00
2022-11-23T17:26:41.723Z,7.00
2022-11-23T17:29:19.000Z,6.90
2022-11-23T17:31:47.365Z,7.00
2022-11-23T17:34:14.960Z,6.90
2022-11-23T17:36:42.850Z,6.90
2022-11-23T17:39:18.684Z,6.90
2022-11-23T17:41:45.360Z,6.90
2022-11-23T17:44:12.086Z,6.90
2022-11-23T17:46:38.948Z,6.90
2022-11-23T17:49:08.004Z,6.80
2022-11-23T17:51:34.676Z,6.80
2022-11-23T17:54:01.333Z,6.80
2022-11-23T17:56:28.154Z,6.80
2022-11-23T17:58:54.946Z,6.80
2022-11-23T18:01:22.271Z,6.70
2022-11-23T18:03:49.649Z,6.70
2022-11-23T18:06:22.369Z,6.70
2022-11-23T18:08:51.075Z,6.70
2022-11-23T18:11:18.744Z,6.70
2022-11-23T18:13:47.417Z,6.70
2022-11-23T18:16:14.424Z,6.70
2022-11-23T18:18:41.198Z,6.70
2022-11-23T18:21:09.684Z,6.70
2022-11-23T18:23:37.259Z,6.70
2022-11-23T18:26:17.137Z,6.70
2022-11-23T18:28:45.348Z,6.70
2022-11-23T18:31:12.520Z,6.80
2022-11-23T18:33:39.531Z,6.80
2022-11-23T18:36:06.860Z,6.80
2022-11-23T18:38:34.445Z,6.80
2022-11-23T18:41:01.059Z,6.70
2022-11-23T18:43:28.017Z,6.70
2022-11-23T18:45:54.725Z,6.70
2022-11-23T18:48:22.325Z,6.60
2022-11-23T18:50:49.189Z,6.60
2022-11-23T18:53:16.261Z,6.60
2022-11-23T18:55:43.059Z,6.60
2022-11-23T18:58:10.588Z,6.60
2022-11-23T19:00:37.343Z,6.60
2022-11-23T19:03:04.647Z,6.60
2022-11-23T19:05:33.834Z,6.60
2022-11-23T19:08:05.940Z,6.60
2022-11-23T19:10:38.048Z,6.60
2022-11-23T19:13:05.992Z,6.60
2022-11-23T19:15:33.891Z,6.60
2022-11-23T19:18:01.068Z,6.60
2022-11-23T19:20:29.272Z,6.70
2022-11-23T19:22:56.090Z,6.70
2022-11-23T19:25:22.710Z,6.70
2022-11-23T19:27:51.523Z,6.70
2022-11-23T19:30:18.446Z,6.70
2022-11-23T19:32:45.090Z,6.70
2022-11-23T19:35:11.831Z,6.70
2022-11-23T19:37:38.686Z,6.60
2022-11-23T19:40:06.172Z,6.60
2022-11-23T19:42:35.614Z,6.50
2022-11-23T19:45:03.080Z,6.40
2022-11-23T19:47:31.390Z,6.30
2022-11-23T19:49:59.037Z,6.10
2022-11-23T19:52:48.136Z,6.00
2022-11-23T19:55:14.387Z,5.90
2022-11-23T19:57:41.128Z,5.80
2022-11-23T20:00:09.321Z,5.80
2022-11-23T20:02:35.950Z,5.90
2022-11-23T20:05:02.699Z,5.90
2022-11-23T20:07:31.714Z,5.90
2022-11-23T20:09:58.503Z,5.90
2022-11-23T20:12:25.093Z,5.90
2022-11-23T20:14:51.744Z,5.90
2022-11-23T20:17:18.369Z,5.70
2022-11-23T20:19:45.039Z,5.70
2022-11-23T20:22:11.801Z,5.60
2022-11-23T20:24:38.739Z,5.50
2022-11-23T20:27:05.402Z,5.40
2022-11-23T20:29:32.403Z,5.40
2022-11-23T20:31:59.342Z,5.30
2022-11-23T20:34:26.594Z,5.40
2022-11-23T20:36:53.278Z,5.40
2022-11-23T20:39:19.919Z,5.30
2022-11-23T20:41:49.255Z,5.20
2022-11-23T20:44:15.885Z,5.10
2022-11-23T20:47:01.240Z,5.10
2022-11-23T20:49:29.922Z,5.10
2022-11-23T20:51:56.871Z,5.10
2022-11-23T20:54:23.633Z,5.00
2022-11-23T20:56:50.294Z,4.90
2022-11-23T20:59:17.286Z,4.80
2022-11-23T21:01:44.122Z,4.80
2022-11-23T21:04:11.025Z,4.70
2022-11-23T21:06:40.201Z,4.60
2022-11-23T21:09:08.804Z,4.50
2022-11-23T21:11:55.827Z,4.50
2022-11-23T21:14:27.081Z,4.40
2022-11-23T21:16:56.131Z,4.50
2022-11-23T21:19:27.616Z,4.50
2022-11-23T21:21:55.125Z,4.60
2022-11-23T21:24:21.992Z,4.60
2022-11-23T21:26:49.054Z,4.70
2022-11-23T21:29:17.163Z,4.80
2022-11-23T21:31:45.946Z,4.60
2022-11-23T21:34:21.893Z,4.50
2022-11-23T21:36:50.472Z,4.50
2022-11-23T21:39:17.848Z,4.40
2022-11-23T21:41:45.337Z,4.30
2022-11-23T21:44:12.313Z,4.30
